Time;durP1;ratioP1;P1;durP2;ratioP2;P2;SDS_P1;SDS_P2;PMS_P1;PMS_P2;Temp;Humidity;BMP_temperature;BMP_pressure;BME280_temperature;BME280_humidity;BME280_pressure;Samples;Min_cycle;Max_cycle;Signal;HPM_P1;HPM_P2
2023/09/11 00:00:59;;;;;;;11.40;10.18;;;20.60;75.40;;;19.89;100.00;96057.41;6112309;23;20029;-64
2023/09/11 00:03:25;;;;;;;10.85;9.75;;;20.60;75.40;;;19.84;100.00;96046.69;6137939;23;20069;-64
2023/09/11 00:05:51;;;;;;;10.93;9.77;;;20.60;75.50;;;19.80;100.00;96048.25;6137395;23;20041;-63
2023/09/11 00:08:17;;;;;;;11.20;9.98;;;20.50;75.70;;;19.78;100.00;96050.34;6064719;23;20117;-64
2023/09/11 00:10:42;;;;;;;11.73;10.63;;;20.60;75.70;;;19.76;100.00;96053.28;6113003;23;20033;-64
2023/09/11 00:13:08;;;;;;;11.80;10.48;;;20.60;75.70;;;19.73;100.00;96048.44;6113137;23;20014;-64
2023/09/11 00:15:35;;;;;;;14.63;9.57;;;20.50;75.90;;;19.70;100.00;96038.25;6113041;23;20034;-65
2023/09/11 00:18:04;;;;;;;12.45;10.57;;;20.50;75.90;;;19.69;100.00;96039.31;6134041;23;20025;-64
2023/09/11 00:20:29;;;;;;;11.65;10.55;;;20.50;75.80;;;19.66;100.00;96041.66;6116761;23;20014;-63
2023/09/11 00:22:55;;;;;;;12.35;10.27;;;20.40;76.00;;;19.63;100.00;96034.94;6142275;23;20391;-64
2023/09/11 00:25:21;;;;;;;11.35;10.13;;;20.30;76.00;;;19.62;100.00;96037.88;6142101;23;20016;-64
2023/09/11 00:27:47;;;;;;;12.65;10.27;;;20.40;76.00;;;19.61;100.00;96036.25;6118655;23;20088;-64
2023/09/11 00:30:13;;;;;;;11.95;10.25;;;20.30;76.10;;;19.58;100.00;96041.03;6117521;23;20018;-66
2023/09/11 00:32:38;;;;;;;11.15;10.02;;;20.30;76.10;;;19.55;100.00;96036.19;6116935;23;20027;-64
2023/09/11 00:35:04;;;;;;;11.52;9.95;;;20.30;76.20;;;19.53;100.00;96032.97;6119453;23;20039;-65
2023/09/11 00:37:30;;;;;;;12.38;11.10;;;20.30;76.00;;;19.50;100.00;96032.63;6117950;23;20007;-64
2023/09/11 00:39:56;;;;;;;11.05;9.80;;;20.30;76.00;;;19.49;100.00;96031.00;6141774;23;20014;-64
2023/09/11 00:42:22;;;;;;;11.50;10.40;;;20.20;75.90;;;19.46;100.00;96034.97;6118929;23;20452;-64
2023/09/11 00:44:47;;;;;;;12.13;10.63;;;20.20;75.90;;;19.44;100.00;96034.41;6117067;23;20029;-63
2023/09/11 00:47:13;;;;;;;12.07;10.70;;;20.20;75.90;;;19.41;100.00;96029.56;6142196;23;20006;-63
2023/09/11 00:49:39;;;;;;;12.27;10.27;;;20.20;76.20;;;19.37;100.00;96028.44;6118102;23;19994;-63
2023/09/11 00:52:05;;;;;;;12.18;10.82;;;20.10;76.50;;;19.35;100.00;96032.41;6116986;23;20032;-63
2023/09/11 00:54:31;;;;;;;12.50;10.65;;;20.10;76.60;;;19.33;100.00;96032.66;6117344;23;20022;-63
2023/09/11 00:56:56;;;;;;;11.00;9.90;;;20.10;76.60;;;19.29;100.00;96026.19;6116925;23;20569;-63
2023/09/11 00:59:23;;;;;;;12.85;10.60;;;20.10;76.60;;;19.26;100.00;96027.50;6117549;23;20014;-64
2023/09/11 01:01:49;;;;;;;12.60;10.20;;;20.00;76.80;;;19.24;100.00;96020.81;6142145;23;20325;-64
2023/09/11 01:04:15;;;;;;;11.10;10.00;;;20.10;76.90;;;19.25;100.00;96025.09;6117533;23;20088;-64
2023/09/11 01:06:41;;;;;;;11.73;10.63;;;20.10;76.90;;;19.21;100.00;96024.75;6092866;23;20018;-64
2023/09/11 01:09:06;;;;;;;11.98;10.73;;;20.10;77.00;;;19.21;100.00;96026.59;6116971;23;20041;-64
2023/09/11 01:11:32;;;;;;;12.10;10.93;;;20.10;77.20;;;19.17;100.00;96018.28;6117028;23;20006;-64
2023/09/11 01:13:58;;;;;;;12.52;11.23;;;20.00;77.20;;;19.16;100.00;96023.88;6115392;23;20474;-64
2023/09/11 01:16:46;;;;;;;12.25;11.05;;;20.00;77.30;;;19.15;100.00;96022.25;6114919;23;20667;-64
2023/09/11 01:19:28;;;;;;;12.48;11.27;;;20.00;77.10;;;19.14;100.00;96020.63;6139478;23;20077;-64
2023/09/11 01:22:29;;;;;;;12.93;11.63;;;19.90;77.50;;;19.10;100.00;96022.19;6138308;23;20486;-64
2023/09/11 01:25:25;;;;;;;12.15;10.85;;;19.80;77.80;;;19.06;100.00;96021.06;6139162;23;20049;-64
2023/09/11 01:28:47;;;;;;;15.02;11.13;;;19.80;77.80;;;19.02;100.00;96019.94;6135771;23;20360;-64
2023/09/11 01:31:13;;;;;;;15.38;10.32;;;19.90;77.60;;;18.96;100.00;96009.19;6118587;23;20037;-63
2023/09/11 01:33:38;;;;;;;12.73;11.35;;;19.80;77.60;;;18.95;100.00;96014.75;6073540;23;20093;-63
2023/09/11 01:36:04;;;;;;;14.57;11.88;;;19.80;77.80;;;18.93;100.00;96016.84;6087659;23;20045;-63
2023/09/11 01:38:30;;;;;;;11.88;10.75;;;19.70;78.10;;;18.90;100.00;96012.00;6112470;23;20022;-63
2023/09/11 01:40:58;;;;;;;12.55;11.27;;;19.60;78.20;;;18.89;100.00;96010.41;6087948;23;20029;-63
2023/09/11 01:43:26;;;;;;;13.52;11.88;;;19.60;78.20;;;18.85;100.00;96004.75;6112434;23;20025;-63
2023/09/11 01:45:52;;;;;;;12.55;11.35;;;19.60;78.30;;;18.82;100.00;96007.09;6110043;23;20041;-63
2023/09/11 01:48:18;;;;;;;12.95;11.65;;;19.60;78.50;;;18.79;100.00;96004.94;6101911;23;20045;-63
2023/09/11 01:50:44;;;;;;;13.05;11.80;;;19.60;78.50;;;18.78;100.00;96004.09;6087733;23;20033;-63
2023/09/11 01:53:09;;;;;;;13.35;12.02;;;19.60;78.60;;;18.75;100.00;96001.91;6088227;23;20069;-63
2023/09/11 01:55:35;;;;;;;13.77;12.32;;;19.50;78.80;;;18.75;100.00;96009.91;6064500;23;20003;-64
2023/09/11 01:58:01;;;;;;;13.70;12.30;;;19.60;78.70;;;18.75;100.00;96004.59;6063675;23;20034;-62
2023/09/11 02:00:27;;;;;;;15.75;14.18;;;19.50;78.60;;;18.73;100.00;95998.69;6087949;23;20014;-63
2023/09/11 02:02:55;;;;;;;16.73;14.52;;;19.50;78.90;;;18.71;100.00;95998.13;6087162;23;20018;-63
2023/09/11 02:05:24;;;;;;;16.10;14.50;;;19.50;79.20;;;18.67;100.00;95991.66;6064399;23;20013;-63
2023/09/11 02:07:49;;;;;;;15.98;14.38;;;19.50;79.20;;;18.62;100.00;95984.41;6112356;23;20002;-63
2023/09/11 02:10:16;;;;;;;14.65;13.23;;;19.50;79.20;;;18.63;100.00;95982.56;6087507;23;20049;-63
2023/09/11 02:12:42;;;;;;;15.93;14.38;;;19.50;79.20;;;18.63;100.00;95990.53;6086924;23;20516;-63
2023/09/11 02:15:08;;;;;;;14.63;13.25;;;19.40;79.10;;;18.59;100.00;95989.38;6100569;23;20073;-62
2023/09/11 02:17:34;;;;;;;15.27;13.43;;;19.40;78.80;;;18.55;100.00;95991.69;6114309;23;20057;-62
2023/09/11 02:20:00;;;;;;;15.05;13.48;;;19.40;79.10;;;18.54;100.00;95986.63;6141745;23;20006;-62
2023/09/11 02:22:25;;;;;;;14.93;13.43;;;19.40;79.20;;;18.53;100.00;95990.34;6087881;23;20058;-63
2023/09/11 02:24:51;;;;;;;15.15;13.57;;;19.40;79.00;;;18.50;100.00;95983.63;6087363;23;20046;-63
2023/09/11 02:27:17;;;;;;;15.52;13.93;;;19.40;79.10;;;18.47;100.00;95980.66;6087339;23;20026;-62
2023/09/11 02:29:42;;;;;;;15.77;13.95;;;19.30;79.20;;;18.45;100.00;95978.22;6087594;23;20030;-63
2023/09/11 02:32:08;;;;;;;15.07;13.35;;;19.30;79.30;;;18.45;100.00;95990.75;6111305;23;20041;-63
2023/09/11 02:34:34;;;;;;;15.45;13.80;;;19.30;79.30;;;18.44;100.00;95978.47;6112664;23;20069;-63
2023/09/11 02:37:00;;;;;;;15.38;13.77;;;19.30;79.20;;;18.46;100.00;95984.38;6087359;23;20092;-63
2023/09/11 02:39:25;;;;;;;15.10;13.60;;;19.30;79.20;;;18.45;100.00;95977.44;6087442;23;20022;-63
2023/09/11 02:41:51;;;;;;;14.98;13.13;;;19.30;79.20;;;18.45;100.00;95982.75;6062593;23;20038;-63
2023/09/11 02:44:17;;;;;;;15.57;12.40;;;19.40;79.40;;;18.44;100.00;95975.81;6088249;23;20081;-67
2023/09/11 02:46:43;;;;;;;15.35;13.80;;;19.30;79.30;;;18.45;100.00;95977.44;6088104;23;20396;-66
2023/09/11 02:49:09;;;;;;;15.50;13.02;;;19.40;79.20;;;18.45;100.00;95972.09;6137536;23;20026;-65
2023/09/11 02:51:34;;;;;;;13.88;12.48;;;19.40;79.00;;;18.44;100.00;95970.47;6092114;23;20024;-67
2023/09/11 02:54:00;;;;;;;17.02;13.10;;;19.30;79.30;;;18.41;100.00;95970.97;6104966;23;20046;-63
2023/09/11 02:56:26;;;;;;;15.77;12.40;;;19.30;79.70;;;18.39;100.00;95967.75;6111994;23;20014;-63
2023/09/11 02:58:52;;;;;;;14.95;13.45;;;19.30;79.70;;;18.39;100.00;95962.41;6063892;23;20565;-63
2023/09/11 03:01:18;;;;;;;14.80;13.30;;;19.30;79.50;;;18.39;100.00;95965.06;6087119;23;20049;-63
2023/09/11 03:03:44;;;;;;;14.45;12.95;;;19.30;79.50;;;18.39;100.00;95973.06;6111357;23;20018;-64
2023/09/11 03:06:10;;;;;;;15.23;13.48;;;19.30;79.50;;;18.40;100.00;95972.03;6087683;23;20025;-64
2023/09/11 03:08:36;;;;;;;16.13;12.98;;;19.30;79.50;;;18.39;100.00;95973.06;6089192;23;20034;-63
2023/09/11 03:11:11;;;;;;;14.43;12.88;;;19.30;79.40;;;18.39;100.00;95973.06;6089074;23;20006;-64
2023/09/11 03:13:37;;;;;;;15.27;13.57;;;19.30;79.10;;;18.36;100.00;95967.19;6118137;23;20050;-63
2023/09/11 03:16:13;;;;;;;14.02;12.73;;;19.30;79.00;;;18.36;100.00;95979.69;6118183;23;20034;-63
2023/09/11 03:18:39;;;;;;;15.88;14.23;;;19.30;79.10;;;18.33;100.00;95972.16;6110128;23;20018;-64
2023/09/11 03:21:05;;;;;;;21.45;19.15;;;19.30;79.00;;;18.30;100.00;95970.78;6064368;23;20019;-64
2023/09/11 03:23:31;;;;;;;22.98;20.58;;;19.20;79.10;;;18.27;100.00;95965.94;6112910;23;20030;-63
2023/09/11 03:25:57;;;;;;;17.95;15.90;;;19.20;79.20;;;18.24;100.00;95971.75;6088672;23;20032;-63
2023/09/11 03:28:26;;;;;;;14.82;13.43;;;19.20;78.90;;;18.21;100.00;95972.22;6116383;23;20192;-63
2023/09/11 03:30:51;;;;;;;14.13;12.18;;;19.10;78.80;;;18.19;100.00;95962.88;6117256;23;20167;-63
2023/09/11 03:33:17;;;;;;;28.15;25.42;;;19.10;78.70;;;18.16;100.00;95968.69;6117350;23;20538;-64
2023/09/11 03:35:48;;;;;;;36.35;32.63;;;19.10;78.70;;;18.11;100.00;95964.09;6141902;23;20093;-63
2023/09/11 03:38:14;;;;;;;;;;;19.00;78.90;;;18.07;100.00;95976.22;6118235;23;20006;-64
2023/09/11 03:40:41;;;;;;;15.50;13.73;;;19.00;78.90;;;18.02;100.00;95968.16;6118552;23;19997;-64
2023/09/11 03:43:07;;;;;;;13.77;12.38;;;19.00;79.10;;;18.01;100.00;95977.19;6068817;23;20460;-64
2023/09/11 03:45:32;;;;;;;14.45;12.90;;;19.00;79.20;;;17.98;100.00;95973.16;6107169;23;20093;-64
2023/09/11 03:47:58;;;;;;;13.82;12.48;;;18.90;79.40;;;17.95;100.00;95967.50;6081766;23;20018;-64
2023/09/11 03:50:24;;;;;;;14.05;12.40;;;18.90;79.60;;;17.95;100.00;95972.81;6088549;23;20030;-63
2023/09/11 03:52:50;;;;;;;14.70;13.23;;;18.90;79.70;;;17.94;100.00;95976.53;6113609;23;20034;-65
2023/09/11 03:55:17;;;;;;;15.02;13.63;;;19.00;79.60;;;17.94;100.00;95971.22;6110774;23;20014;-64
2023/09/11 03:57:43;;;;;;;17.30;15.52;;;18.90;79.60;;;17.92;100.00;95968.00;6087771;23;20015;-66
2023/09/11 04:00:10;;;;;;;32.00;28.75;;;18.90;79.40;;;17.92;100.00;95979.44;6113454;23;20275;-65
2023/09/11 04:02:37;;;;;;;20.02;17.92;;;18.90;79.50;;;17.91;100.00;95969.03;6119434;23;20010;-66
2023/09/11 04:05:03;;;;;;;19.38;17.48;;;19.00;79.50;;;17.91;100.00;95967.19;6094067;23;20088;-65
2023/09/11 04:07:29;;;;;;;16.90;14.95;;;18.90;79.40;;;17.90;100.00;95970.06;6114577;23;20130;-65
2023/09/11 04:09:55;;;;;;;15.30;13.75;;;19.00;79.60;;;17.89;100.00;95963.94;6115158;23;20062;-66
2023/09/11 04:12:21;;;;;;;14.80;13.30;;;19.00;80.10;;;17.90;100.00;95962.09;6090774;23;20121;-65
2023/09/11 04:14:46;;;;;;;17.15;15.35;;;18.90;80.40;;;17.90;100.00;95954.91;6124505;23;20057;-66
2023/09/11 04:17:12;;;;;;;28.50;25.63;;;18.90;80.30;;;17.91;100.00;95966.38;6118423;23;20013;-67
2023/09/11 04:19:38;;;;;;;37.97;34.13;;;18.90;80.50;;;17.90;100.00;95965.56;6116388;23;20077;-65
2023/09/11 04:22:07;;;;;;;22.58;20.30;;;18.90;80.50;;;17.88;100.00;95967.66;6066841;23;20021;-65
2023/09/11 04:24:33;;;;;;;22.13;20.02;;;18.90;80.40;;;17.87;100.00;95975.84;6115123;23;20015;-66
2023/09/11 04:26:59;;;;;;;24.02;21.50;;;18.90;80.10;;;17.84;100.00;95965.69;6115260;23;20014;-65
2023/09/11 04:29:25;;;;;;;19.75;17.83;;;18.80;79.90;;;17.83;100.00;95970.19;6115554;23;20021;-65
2023/09/11 04:31:50;;;;;;;15.23;13.57;;;18.80;80.20;;;17.83;100.00;95974.72;6091362;23;20007;-65
2023/09/11 04:34:19;;;;;;;15.05;13.48;;;18.80;80.10;;;17.82;100.00;95967.78;6090761;23;20381;-66
2023/09/11 04:36:45;;;;;;;14.27;12.80;;;18.80;80.10;;;17.80;100.00;95975.19;6092425;23;20015;-66
2023/09/11 04:39:14;;;;;;;14.75;13.30;;;18.80;80.00;;;17.76;100.00;95956.25;6129046;23;20083;-69
2023/09/11 04:41:40;;;;;;;14.55;13.13;;;18.80;80.30;;;17.76;100.00;95972.19;6136303;23;20475;-67
2023/09/11 04:44:06;;;;;;;14.77;12.80;;;18.70;80.20;;;17.73;100.00;95970.81;6115648;23;20405;-69
2023/09/11 04:46:33;;;;;;;15.60;13.55;;;18.70;80.50;;;17.73;100.00;95970.81;6092001;23;20049;-66
2023/09/11 04:48:58;;;;;;;14.32;12.90;;;18.70;80.40;;;17.71;100.00;95978.25;6093065;23;20049;-67
2023/09/11 04:51:25;;;;;;;14.07;12.70;;;18.70;80.40;;;17.71;100.00;95975.56;6115298;23;20112;-65
2023/09/11 04:53:50;;;;;;;14.45;12.90;;;18.70;80.60;;;17.69;100.00;95969.69;6066870;23;20050;-68
2023/09/11 04:56:16;;;;;;;16.52;13.20;;;18.70;80.60;;;17.68;100.00;95968.06;6093779;23;20017;-65
2023/09/11 04:58:42;;;;;;;14.27;12.88;;;18.60;80.20;;;17.66;100.00;95975.44;6120517;23;20044;-67
2023/09/11 05:01:11;;;;;;;14.13;12.73;;;18.60;79.90;;;17.60;100.00;95965.75;6144387;23;20018;-67
2023/09/11 05:03:37;;;;;;;14.25;12.85;;;18.60;80.00;;;17.57;100.00;95973.38;6101447;23;20018;-65
2023/09/11 05:06:03;;;;;;;14.50;13.07;;;18.60;80.40;;;17.55;100.00;95970.97;6067076;23;20018;-67
2023/09/11 05:08:29;;;;;;;16.30;13.80;;;18.60;80.60;;;17.53;100.00;95981.03;6090719;23;20033;-66
2023/09/11 05:10:55;;;;;;;16.58;13.95;;;18.60;80.70;;;17.54;100.00;95977.31;6115392;23;20022;-67
2023/09/11 05:13:20;;;;;;;15.73;14.25;;;18.60;80.80;;;17.56;100.00;95980.56;6118440;23;20025;-66
2023/09/11 05:15:48;;;;;;;15.70;14.10;;;18.60;80.70;;;17.58;100.00;95982.97;6144732;23;20375;-65
2023/09/11 05:18:14;;;;;;;16.00;14.38;;;18.60;80.70;;;17.58;100.00;95978.47;6120136;23;20069;-65
2023/09/11 05:20:40;;;;;;;15.20;13.80;;;18.60;80.50;;;17.59;100.00;95980.09;6144569;23;20025;-65
2023/09/11 05:23:06;;;;;;;16.05;14.45;;;18.70;80.60;;;17.61;100.00;95972.66;6144428;23;20344;-66
2023/09/11 05:25:32;;;;;;;17.05;14.27;;;18.70;80.60;;;17.61;100.00;95977.19;6122113;23;19994;-67
2023/09/11 05:27:58;;;;;;;23.75;21.38;;;18.70;80.80;;;17.63;100.00;95977.75;6095299;23;20029;-65
2023/09/11 05:30:23;;;;;;;17.98;16.20;;;18.80;81.20;;;17.67;100.00;95987.75;6144073;23;20010;-67
2023/09/11 05:32:52;;;;;;;18.42;16.70;;;18.80;81.00;;;17.71;100.00;95985.41;6119326;23;20045;-66
2023/09/11 05:35:19;;;;;;;15.55;13.85;;;18.90;80.80;;;17.74;100.00;95985.75;6119638;23;20495;-67
2023/09/11 05:37:45;;;;;;;15.90;14.30;;;18.90;80.80;;;17.75;100.00;95992.69;6144583;23;20041;-65
2023/09/11 05:40:11;;;;;;;15.95;14.35;;;19.00;80.80;;;17.79;100.00;95989.53;6119852;23;20029;-65
2023/09/11 05:42:37;;;;;;;17.73;13.73;;;19.00;80.90;;;17.81;100.00;95992.78;6144341;23;20388;-68
2023/09/11 05:45:04;;;;;;;14.88;13.43;;;19.10;80.70;;;17.84;100.00;95992.28;6121233;23;20038;-67
2023/09/11 05:47:29;;;;;;;14.63;13.13;;;19.00;80.70;;;17.88;100.00;95998.75;6120015;23;20965;-66
2023/09/11 05:50:00;;;;;;;17.17;15.45;;;19.10;80.70;;;17.92;100.00;96002.59;6095976;23;20036;-67
2023/09/11 05:52:29;;;;;;;16.67;14.98;;;19.10;80.90;;;17.96;100.00;95995.72;6119505;23;20441;-66
2023/09/11 05:54:55;;;;;;;15.90;14.15;;;19.20;80.80;;;18.01;100.00;96009.13;6143945;23;20464;-68
2023/09/11 05:57:20;;;;;;;16.25;13.77;;;19.20;80.90;;;18.05;100.00;96005.75;6121191;23;20014;-67
2023/09/11 05:59:46;;;;;;;15.25;13.75;;;19.30;80.80;;;18.11;100.00;95998.69;6120007;23;20021;-67
2023/09/11 06:02:12;;;;;;;15.90;13.52;;;19.40;80.70;;;18.17;100.00;96000.38;6144045;23;20040;-65
2023/09/11 06:04:38;;;;;;;15.25;13.63;;;19.50;80.70;;;18.23;100.00;95996.75;6145225;23;20009;-66
2023/09/11 06:07:04;;;;;;;15.68;13.35;;;19.50;80.70;;;18.31;100.00;95992.88;6095232;23;20018;-67
2023/09/11 06:09:30;;;;;;;15.40;13.80;;;19.60;80.50;;;18.41;100.00;95997.59;6144187;23;20017;-65
2023/09/11 06:11:56;;;;;;;16.48;14.10;;;19.80;80.40;;;18.47;100.00;95996.63;6094728;23;20061;-65
2023/09/11 06:14:22;;;;;;;15.80;14.20;;;19.90;80.20;;;18.54;100.00;96002.59;6144254;23;20014;-65
2023/09/11 06:16:48;;;;;;;15.93;13.88;;;19.90;80.30;;;18.60;100.00;95994.47;6120479;23;20006;-67
2023/09/11 06:19:13;;;;;;;15.57;13.55;;;20.10;79.90;;;18.67;100.00;95994.34;6144131;23;20041;-65
2023/09/11 06:21:39;;;;;;;14.85;13.40;;;20.20;79.70;;;18.75;100.00;95999.25;6119216;23;20069;-66
2023/09/11 06:24:05;;;;;;;15.32;13.82;;;20.30;79.50;;;18.82;100.00;95993.78;6144202;23;20042;-67
2023/09/11 06:26:31;;;;;;;15.40;13.77;;;20.40;79.50;;;18.90;100.00;95990.69;6143975;23;20005;-66
2023/09/11 06:28:57;;;;;;;14.43;12.98;;;20.50;79.30;;;18.98;100.00;95999.06;6095433;23;20021;-65
2023/09/11 06:31:23;;;;;;;15.35;13.85;;;20.60;79.10;;;19.06;100.00;95995.22;6119050;23;20045;-65
2023/09/11 06:33:48;;;;;;;16.17;13.27;;;20.70;78.70;;;19.14;100.00;95996.66;6119072;23;20018;-66
2023/09/11 06:36:14;;;;;;;14.40;13.00;;;20.80;78.60;;;19.21;100.00;95997.25;6119429;23;20053;-65
2023/09/11 06:38:40;;;;;;;14.63;13.13;;;20.90;78.20;;;19.31;100.00;96001.94;6119648;23;20006;-68
2023/09/11 06:41:06;;;;;;;15.15;13.38;;;21.00;78.30;;;19.40;100.00;95995.94;6119890;23;20017;-66
2023/09/11 06:43:31;;;;;;;16.00;13.07;;;21.00;78.10;;;19.49;100.00;95994.47;6146357;23;20077;-65
2023/09/11 06:45:57;;;;;;;14.20;12.80;;;21.10;78.00;;;19.60;100.00;95999.94;6145904;23;20021;-65
2023/09/11 06:48:23;;;;;;;15.20;13.73;;;21.20;78.10;;;19.70;100.00;96006.25;6145846;23;20017;-65
2023/09/11 06:50:51;;;;;;;14.98;13.43;;;21.40;78.10;;;19.81;100.00;95997.28;6145072;23;20022;-67
2023/09/11 06:53:17;;;;;;;14.40;13.05;;;21.50;77.60;;;19.94;100.00;95996.09;6121159;23;20006;-64
2023/09/11 06:55:44;;;;;;;14.02;12.60;;;21.60;77.40;;;20.07;100.00;96001.03;6121880;23;20002;-65
2023/09/11 06:58:10;;;;;;;14.90;13.32;;;21.80;76.90;;;20.23;100.00;96003.88;6120980;23;20340;-67
2023/09/11 07:00:36;;;;;;;15.77;13.75;;;22.10;76.40;;;20.39;100.00;96002.97;6121163;23;20018;-65
2023/09/11 07:03:02;;;;;;;14.88;13.38;;;22.50;75.40;;;20.58;100.00;95990.06;6145319;23;20098;-65
2023/09/11 07:05:28;;;;;;;14.25;12.77;;;23.00;73.20;;;20.78;100.00;95995.56;6121180;23;20443;-67
2023/09/11 07:07:54;;;;;;;14.48;12.32;;;23.40;72.40;;;20.96;100.00;95991.69;6146160;23;20160;-67
2023/09/11 07:10:22;;;;;;;15.35;12.38;;;23.80;70.60;;;21.21;100.00;95991.84;6145849;23;20064;-65
2023/09/11 07:12:49;;;;;;;12.73;11.43;;;24.30;69.50;;;21.46;100.00;95991.22;6120506;23;20014;-64
2023/09/11 07:15:16;;;;;;;15.40;12.48;;;24.80;67.80;;;21.75;100.00;95994.31;6121208;23;20034;-65
2023/09/11 07:17:42;;;;;;;13.07;11.75;;;25.50;66.10;;;22.03;100.00;95990.38;6120808;23;20010;-65
2023/09/11 07:20:12;;;;;;;12.02;10.93;;;26.00;64.00;;;22.35;100.00;95989.41;6145528;23;20553;-64
2023/09/11 07:22:37;;;;;;;12.15;10.90;;;26.50;62.60;;;22.64;100.00;95990.53;6121360;23;20036;-65
2023/09/11 07:25:04;;;;;;;16.17;11.88;;;26.90;61.60;;;22.97;100.00;95993.75;6145650;23;20356;-67
2023/09/11 07:27:33;;;;;;;13.73;11.23;;;27.20;59.90;;;23.31;100.00;95993.97;6120346;23;20022;-67
2023/09/11 07:30:03;;;;;;;13.35;11.13;;;27.70;58.80;;;23.65;100.00;95994.97;6122527;23;20839;-65
2023/09/11 07:32:30;;;;;;;12.25;10.30;;;28.10;58.20;;;23.99;100.00;96000.50;6096367;23;20021;-65
2023/09/11 07:34:56;;;;;;;11.50;10.23;;;28.30;57.40;;;24.34;100.00;95994.13;6121179;23;20010;-65
2023/09/11 07:37:22;;;;;;;12.13;10.63;;;28.60;55.90;;;24.65;97.75;95992.03;6145124;23;20006;-65
2023/09/11 07:39:48;;;;;;;11.95;9.32;;;28.60;55.40;;;24.98;95.20;95987.72;6120523;23;20033;-64
2023/09/11 07:42:14;;;;;;;12.27;10.18;;;29.00;54.90;;;25.33;92.50;95985.78;6120227;23;20045;-64
2023/09/11 07:44:39;;;;;;;11.13;9.77;;;29.30;53.90;;;25.63;90.68;95985.50;6122211;23;20010;-66
2023/09/11 07:47:05;;;;;;;11.30;9.52;;;29.60;53.20;;;25.98;87.71;95980.75;6120522;23;20407;-65
2023/09/11 07:49:31;;;;;;;13.55;11.05;;;30.00;52.40;;;26.29;85.19;95974.97;6121213;23;20013;-68
2023/09/11 07:51:56;;;;;;;10.38;9.40;;;30.20;51.70;;;26.55;83.27;95971.63;6119899;23;20014;-65
2023/09/11 07:54:22;;;;;;;10.52;8.93;;;30.40;50.70;;;26.72;81.12;95973.81;6144845;23;20352;-64
2023/09/11 07:56:50;;;;;;;10.48;8.88;;;30.50;50.70;;;26.97;81.83;95974.47;6120941;23;20487;-66
2023/09/11 07:59:17;;;;;;;11.02;8.30;;;31.00;50.70;;;27.25;80.24;95976.16;6097207;23;20060;-67
2023/09/11 08:01:45;;;;;;;9.32;8.23;;;31.40;50.10;;;27.53;78.64;95970.78;6121240;23;20014;-65
2023/09/11 08:04:11;;;;;;;9.48;8.52;;;31.80;49.00;;;27.82;77.46;95971.28;6145244;23;20077;-66
2023/09/11 08:06:37;;;;;;;9.20;8.30;;;32.10;48.10;;;28.04;75.70;95971.38;6145697;23;20021;-65
2023/09/11 08:09:05;;;;;;;9.93;8.63;;;32.30;47.40;;;28.25;74.20;95968.25;6145533;23;20014;-64
2023/09/11 08:11:34;;;;;;;8.52;7.68;;;32.40;46.80;;;28.42;72.85;95957.59;6120767;23;20085;-64
2023/09/11 08:14:00;;;;;;;9.23;8.32;;;32.50;46.50;;;28.64;72.12;95957.59;6145645;23;20006;-68
2023/09/11 08:16:26;;;;;;;11.70;7.97;;;32.90;46.30;;;28.83;70.60;95964.75;6120956;23;20017;-67
2023/09/11 08:18:51;;;;;;;10.15;8.35;;;32.90;45.50;;;28.97;70.33;95957.38;6095698;23;20061;-65
2023/09/11 08:21:19;;;;;;;10.13;8.70;;;33.10;45.60;;;29.11;69.01;95955.38;6120874;23;20021;-66
2023/09/11 08:23:45;;;;;;;11.95;8.32;;;33.10;44.90;;;29.26;67.90;95960.41;6122198;23;20577;-65
2023/09/11 08:26:10;;;;;;;9.27;8.00;;;33.40;44.60;;;29.35;67.58;95948.78;6145034;23;20012;-66
2023/09/11 08:28:39;;;;;;;8.38;7.40;;;33.20;45.00;;;29.49;66.38;95949.53;6145372;23;20009;-68
2023/09/11 08:31:04;;;;;;;11.25;7.80;;;33.50;44.80;;;29.67;65.67;95950.41;6120305;23;20319;-67
2023/09/11 08:33:30;;;;;;;8.02;7.22;;;33.60;44.70;;;29.82;65.74;95950.75;6144822;23;20052;-65
2023/09/11 08:35:56;;;;;;;9.50;7.15;;;33.70;44.90;;;30.01;64.82;95949.66;6144843;23;20598;-68
2023/09/11 08:38:22;;;;;;;7.63;6.93;;;34.00;43.90;;;30.16;65.10;95947.34;6120424;23;20010;-66
2023/09/11 08:40:48;;;;;;;7.85;7.07;;;34.10;44.10;;;30.34;64.05;95937.28;6122125;23;20081;-68
2023/09/11 08:43:13;;;;;;;8.57;7.47;;;34.20;43.60;;;30.46;62.09;95932.00;6144618;23;20017;-66
2023/09/11 08:45:39;;;;;;;9.38;7.40;;;34.10;43.00;;;30.65;61.99;95930.91;6120171;23;20360;-66
2023/09/11 08:48:11;;;;;;;8.02;6.93;;;34.30;43.20;;;30.83;58.37;95907.25;6120260;23;20072;-67
2023/09/11 08:50:46;;;;;;;10.18;7.28;;;34.40;42.00;;;31.05;58.74;95912.47;6120104;23;20010;-65
2023/09/11 08:53:14;;;;;;;8.13;7.30;;;34.60;43.50;;;31.17;59.74;95922.69;6095665;23;20029;-65
2023/09/11 08:55:39;;;;;;;8.05;7.07;;;34.30;43.00;;;31.32;59.73;95922.16;6096362;23;20364;-68
2023/09/11 08:58:09;;;;;;;12.45;7.68;;;34.70;42.90;;;31.51;57.46;95908.16;6119919;23;20061;-68
2023/09/11 09:00:35;;;;;;;9.40;8.10;;;34.70;42.00;;;31.71;57.81;95923.72;6120039;23;20069;-66
2023/09/11 09:03:01;;;;;;;7.50;6.80;;;35.00;41.90;;;31.92;57.54;95919.16;6119625;23;20025;-65
2023/09/11 09:05:27;;;;;;;7.35;6.45;;;35.20;41.10;;;32.17;56.73;95920.09;6120286;23;20006;-65
2023/09/11 09:07:53;;;;;;;9.23;6.20;;;35.50;40.40;;;32.43;55.42;95916.41;6120418;23;20321;-65
2023/09/11 09:10:19;;;;;;;7.35;6.60;;;35.90;39.90;;;32.68;55.17;95912.66;6119979;23;20475;-66
2023/09/11 09:12:45;;;;;;;7.85;6.45;;;36.00;40.90;;;32.84;54.01;95902.75;6119349;23;20392;-66
2023/09/11 09:15:11;;;;;;;8.95;6.40;;;35.70;39.60;;;33.01;53.71;95888.13;6119739;23;20097;-67
2023/09/11 09:17:38;;;;;;;6.97;6.28;;;36.00;39.90;;;33.21;53.80;95902.81;6120037;23;20018;-66
2023/09/11 09:20:04;;;;;;;7.28;6.57;;;36.20;40.20;;;33.38;52.84;95897.19;6121622;23;20088;-66
2023/09/11 09:22:30;;;;;;;12.75;9.30;;;36.50;39.40;;;33.59;52.42;95891.63;6120288;23;20088;-66
2023/09/11 09:24:55;;;;;;;7.97;6.78;;;36.50;39.50;;;33.84;52.00;95897.88;6120180;23;20029;-66
2023/09/11 09:27:24;;;;;;;7.78;6.95;;;36.70;39.30;;;34.05;50.25;95879.41;6144918;23;20025;-64
2023/09/11 09:29:50;;;;;;;7.45;5.90;;;36.80;37.50;;;34.26;49.75;95883.91;6120629;23;20535;-64
2023/09/11 09:32:16;;;;;;;6.93;6.00;;;37.10;37.90;;;34.51;48.61;95866.31;6120299;23;20395;-64
2023/09/11 09:34:55;;;;;;;8.57;6.82;;;37.40;36.80;;;34.72;45.67;95843.44;6120884;23;20061;-64
2023/09/11 09:37:21;;;;;;;8.20;6.20;;;37.20;37.40;;;34.87;47.81;95867.31;6120403;23;20356;-66
2023/09/11 09:39:48;;;;;;;8.85;6.22;;;37.20;37.50;;;35.08;45.85;95850.63;6121312;23;20021;-65
2023/09/11 09:42:14;;;;;;;9.35;6.25;;;37.60;36.20;;;35.30;45.65;95848.06;6144580;23;20042;-65
2023/09/11 09:44:42;;;;;;;6.72;5.90;;;37.70;36.00;;;35.45;44.77;95832.03;6120311;23;20002;-66
2023/09/11 09:47:09;;;;;;;9.07;6.07;;;38.00;35.90;;;35.61;43.83;95832.81;6120194;23;20016;-67
2023/09/11 09:49:51;;;;;;;7.97;6.18;;;37.80;35.40;;;35.82;43.47;95830.56;6121183;23;20021;-66
2023/09/11 09:52:18;;;;;;;10.88;6.22;;;38.30;36.50;;;36.01;43.86;95842.72;6143809;23;20141;-65
2023/09/11 09:54:49;;;;;;;8.52;6.40;;;38.60;35.90;;;36.16;40.81;95800.75;6119950;23;20371;-64
2023/09/11 09:57:17;;;;;;;8.25;6.15;;;38.40;34.20;;;36.31;41.64;95821.84;6144849;23;20017;-66
2023/09/11 09:59:48;;;;;;;7.00;6.15;;;38.70;34.10;;;36.42;39.52;95798.16;6144259;23;20009;-64
2023/09/11 10:02:14;;;;;;;6.80;6.10;;;38.70;33.50;;;36.68;42.31;95821.38;6120182;23;20014;-66
2023/09/11 10:04:39;;;;;;;7.68;6.40;;;39.20;33.60;;;37.02;42.45;95814.94;6121104;23;19998;-66